createdAt,value
2016-12-28T00:00:23.748Z,95.31
2016-12-28T00:01:23.744Z,95.12
2016-12-28T00:02:23.741Z,95.31
2016-12-28T00:03:23.728Z,95.59
2016-12-28T00:04:23.728Z,95.68
2016-12-28T00:05:23.725Z,95.21
2016-12-28T00:06:23.720Z,95.31
2016-12-28T00:07:23.389Z,95.21
2016-12-28T00:08:23.708Z,95.12
2016-12-28T00:09:23.703Z,95.12
2016-12-28T00:10:23.696Z,95.12
2016-12-28T00:11:23.361Z,95.12
2016-12-28T00:12:23.685Z,95.5
2016-12-28T00:13:23.681Z,95.12
2016-12-28T00:14:23.709Z,95.03
2016-12-28T00:15:23.337Z,94.74
2016-12-28T00:16:23.334Z,94.84
2016-12-28T00:17:23.325Z,95.03
2016-12-28T00:18:23.649Z,94.46
2016-12-28T00:19:23.645Z,94.93
2016-12-28T00:20:23.641Z,95.12
2016-12-28T00:21:23.629Z,95.5
2016-12-28T00:22:23.301Z,95.21
2016-12-28T00:23:23.633Z,95.31
2016-12-28T00:24:23.621Z,94.74
2016-12-28T00:25:23.613Z,94.65
2016-12-28T00:26:23.285Z,94.65
2016-12-28T00:27:23.601Z,94.65
2016-12-28T00:28:23.597Z,94.65
2016-12-28T00:29:23.594Z,94.65
2016-12-28T00:30:23.258Z,94.74
2016-12-28T00:31:26.618Z,94.46
2016-12-28T00:32:23.574Z,94.55
2016-12-28T00:33:23.570Z,94.65
2016-12-28T00:34:23.562Z,94.36
2016-12-28T00:35:23.558Z,94.65
2016-12-28T00:36:23.557Z,94.65
2016-12-28T00:37:23.550Z,94.46
2016-12-28T00:38:23.214Z,94.74
2016-12-28T00:39:23.538Z,94.65
2016-12-28T00:40:23.534Z,94.74
2016-12-28T00:41:23.530Z,94.93
2016-12-28T00:42:23.190Z,95.12
2016-12-28T00:43:23.190Z,94.84
2016-12-28T00:44:23.510Z,94.65
2016-12-28T00:45:23.186Z,94.46
2016-12-28T00:46:23.502Z,94.27
2016-12-28T00:47:23.488Z,94.46
2016-12-28T00:48:23.486Z,94.46
2016-12-28T00:49:23.482Z,94.55
2016-12-28T00:50:23.150Z,94.27
2016-12-28T00:51:23.146Z,94.18
2016-12-28T00:52:23.470Z,94.18
2016-12-28T00:53:23.455Z,94.46
2016-12-28T00:54:23.458Z,94.41
2016-12-28T00:55:23.127Z,94.65
2016-12-28T00:56:23.446Z,94.65
2016-12-28T00:57:23.439Z,94.65
2016-12-28T00:58:23.103Z,94.55
2016-12-28T00:59:23.103Z,94.27
2016-12-28T01:00:23.415Z,94.36
2016-12-28T01:01:23.419Z,94.08
2016-12-28T01:02:23.411Z,94.27
2016-12-28T01:03:23.083Z,94.55
2016-12-28T01:04:23.403Z,94.08
2016-12-28T01:05:23.399Z,94.46
2016-12-28T01:06:23.083Z,94.27
2016-12-28T01:07:23.387Z,94.27
2016-12-28T01:08:23.375Z,94.36
2016-12-28T01:09:23.367Z,94.65
2016-12-28T01:10:23.039Z,94.55
2016-12-28T01:11:23.359Z,94.41
2016-12-28T01:12:23.356Z,94.32
2016-12-28T01:13:23.359Z,94.32
2016-12-28T01:14:23.341Z,94.51
2016-12-28T01:15:23.340Z,94.32
2016-12-28T01:16:23.335Z,94.6
2016-12-28T01:17:23.327Z,94.65
2016-12-28T01:18:22.995Z,94.84
2016-12-28T01:19:23.321Z,94.36
2016-12-28T01:20:23.311Z,94.6
2016-12-28T01:21:23.311Z,94.65
2016-12-28T01:22:22.976Z,94.46
2016-12-28T01:23:23.299Z,94.79
2016-12-28T01:24:23.292Z,94.6
2016-12-28T01:25:22.960Z,94.51
2016-12-28T01:26:23.283Z,94.32
2016-12-28T01:27:23.272Z,94.51
2016-12-28T01:28:23.268Z,94.55
2016-12-28T01:29:22.936Z,94.6
2016-12-28T01:30:23.260Z,94.93
2016-12-28T01:31:23.252Z,94.6
2016-12-28T01:32:22.912Z,94.22
2016-12-28T01:33:23.236Z,94.22
2016-12-28T01:34:23.236Z,94.32
2016-12-28T01:35:23.228Z,94.41
2016-12-28T01:36:23.224Z,94.41
2016-12-28T01:37:23.216Z,94.41
2016-12-28T01:38:23.218Z,94.22
2016-12-28T01:39:23.208Z,93.65
2016-12-28T01:40:23.204Z,93.94
2016-12-28T01:41:23.196Z,94.41
2016-12-28T01:42:22.858Z,94.51
2016-12-28T01:43:23.188Z,94.03
2016-12-28T01:44:23.181Z,94.03
2016-12-28T01:45:23.172Z,94.22
2016-12-28T01:46:22.844Z,94.13
2016-12-28T01:47:23.160Z,94.13
2016-12-28T01:48:23.156Z,94.13
2016-12-28T01:49:23.161Z,94.03
2016-12-28T01:50:23.145Z,94.13
2016-12-28T01:51:23.140Z,94.22
2016-12-28T01:52:23.133Z,94.13
2016-12-28T01:53:22.799Z,94.51
2016-12-28T01:54:23.133Z,93.65
2016-12-28T01:55:23.125Z,94.6
2016-12-28T01:56:22.784Z,94.41
2016-12-28T01:57:23.113Z,94.22
2016-12-28T01:58:23.098Z,94.51
2016-12-28T01:59:23.104Z,94.41
2016-12-28T02:00:23.089Z,94.41
2016-12-28T02:01:23.088Z,94.41
2016-12-28T02:02:23.084Z,94.41
2016-12-28T02:03:23.072Z,94.32
2016-12-28T02:04:23.072Z,93.65
2016-12-28T02:05:23.064Z,94.03
2016-12-28T02:06:23.060Z,93.84
2016-12-28T02:07:23.056Z,94.13
2016-12-28T02:08:23.048Z,94.03
2016-12-28T02:09:22.712Z,94.13
2016-12-28T02:10:23.036Z,94.32
2016-12-28T02:11:23.024Z,94.03
2016-12-28T02:12:22.696Z,94.03
2016-12-28T02:13:23.016Z,94.03
2016-12-28T02:14:23.012Z,94.32
2016-12-28T02:15:23.007Z,94.32
2016-12-28T02:16:22.999Z,94.41
2016-12-28T02:17:22.995Z,94.41
2016-12-28T02:18:22.663Z,94.41
2016-12-28T02:19:22.652Z,94.51
2016-12-28T02:20:22.979Z,93.94
2016-12-28T02:21:22.967Z,94.51
2016-12-28T02:22:22.639Z,93.94
2016-12-28T02:23:22.963Z,93.94
2016-12-28T02:24:22.951Z,94.32
2016-12-28T02:25:22.619Z,94.6
2016-12-28T02:26:22.947Z,94.41
2016-12-28T02:27:22.939Z,94.32
2016-12-28T02:28:22.927Z,94.13
2016-12-28T02:29:22.927Z,94.03
2016-12-28T02:30:22.927Z,94.03
2016-12-28T02:31:22.587Z,93.65
2016-12-28T02:32:22.910Z,94.13
2016-12-28T02:33:22.903Z,93.65
2016-12-28T02:34:22.902Z,93.65
2016-12-28T02:35:22.898Z,93.84
2016-12-28T02:36:22.888Z,93.65
2016-12-28T02:37:22.554Z,93.65
2016-12-28T02:38:22.882Z,93.37
2016-12-28T02:39:22.869Z,93.37
2016-12-28T02:40:22.541Z,93.65
2016-12-28T02:41:22.857Z,93.65
2016-12-28T02:42:22.857Z,93.47
2016-12-28T02:43:22.529Z,93.65
2016-12-28T02:44:22.841Z,93.47
2016-12-28T02:45:22.836Z,93.65
2016-12-28T02:46:22.832Z,93.75
2016-12-28T02:47:22.824Z,93.84
2016-12-28T02:48:22.484Z,93.65
2016-12-28T02:49:22.816Z,93.84
2016-12-28T02:50:22.812Z,93.84
2016-12-28T02:51:22.808Z,94.22
2016-12-28T02:52:22.788Z,93.65
2016-12-28T02:53:22.791Z,93.75
2016-12-28T02:54:22.455Z,93.28
2016-12-28T02:55:22.779Z,93.75
2016-12-28T02:56:22.767Z,93.75
2016-12-28T02:57:22.439Z,93.75
2016-12-28T02:58:22.759Z,93.65
2016-12-28T02:59:22.759Z,93.75
2016-12-28T03:00:22.422Z,93.75
2016-12-28T03:01:22.419Z,93.75
2016-12-28T03:02:22.738Z,93.84
2016-12-28T03:03:22.730Z,93.65
2016-12-28T03:04:22.730Z,93.56
2016-12-28T03:05:22.722Z,93.37
2016-12-28T03:06:22.714Z,93.18
2016-12-28T03:07:22.709Z,93.28
2016-12-28T03:08:22.374Z,93.75
2016-12-28T03:09:22.701Z,93.28
2016-12-28T03:10:22.691Z,93.65
2016-12-28T03:11:22.693Z,93.47
2016-12-28T03:12:22.677Z,93.84
2016-12-28T03:13:22.672Z,93.47
2016-12-28T03:14:22.668Z,94.22
2016-12-28T03:15:22.669Z,93.84
2016-12-28T03:16:22.656Z,94.03
2016-12-28T03:17:22.648Z,94.22
2016-12-28T03:18:22.644Z,94.22
2016-12-28T03:19:22.316Z,94.41
2016-12-28T03:20:22.636Z,94.03
2016-12-28T03:21:22.628Z,94.03
2016-12-28T03:22:22.627Z,94.6
2016-12-28T03:23:22.615Z,94.6
2016-12-28T03:24:22.283Z,94.41
2016-12-28T03:25:22.607Z,94.41
2016-12-28T03:26:22.599Z,94.51
2016-12-28T03:27:22.271Z,94.13
2016-12-28T03:28:22.591Z,94.32
2016-12-28T03:29:22.587Z,94.32
2016-12-28T03:30:22.267Z,94.22
2016-12-28T03:31:22.575Z,94.41
2016-12-28T03:32:22.559Z,94.6
2016-12-28T03:33:22.563Z,94.03
2016-12-28T03:34:22.559Z,94.51
2016-12-28T03:35:22.219Z,94.6
2016-12-28T03:36:22.547Z,94.22
2016-12-28T03:37:22.206Z,94.69
2016-12-28T03:38:22.531Z,94.88
2016-12-28T03:39:22.518Z,94.6
2016-12-28T03:40:22.511Z,94.41
2016-12-28T03:41:22.511Z,94.79
2016-12-28T03:42:22.506Z,95.17
2016-12-28T03:43:22.502Z,94.98
2016-12-28T03:44:22.498Z,95.17
2016-12-28T03:45:22.500Z,94.98
2016-12-28T03:46:22.490Z,94.88
2016-12-28T03:47:22.147Z,95.07
2016-12-28T03:48:22.479Z,95.26
2016-12-28T03:49:22.470Z,94.79
2016-12-28T03:50:22.139Z,94.79
2016-12-28T03:51:22.458Z,94.79
2016-12-28T03:52:22.451Z,94.6
2016-12-28T03:53:22.455Z,94.41
2016-12-28T03:54:22.111Z,94.79
2016-12-28T03:55:22.431Z,94.69
2016-12-28T03:56:22.431Z,94.6
2016-12-28T03:57:22.091Z,95.07
2016-12-28T03:58:22.423Z,94.88
2016-12-28T03:59:22.410Z,94.69
2016-12-28T04:00:22.407Z,94.79
2016-12-28T04:01:22.418Z,94.79
2016-12-28T04:02:22.071Z,94.79
2016-12-28T04:03:22.387Z,94.79
2016-12-28T04:04:22.059Z,94.6
2016-12-28T04:05:22.382Z,94.41
2016-12-28T04:06:22.043Z,94.41
2016-12-28T04:07:22.371Z,94.22
2016-12-28T04:08:22.358Z,94.22
2016-12-28T04:09:22.358Z,94.22
2016-12-28T04:10:22.358Z,94.32
2016-12-28T04:11:22.015Z,94.32
2016-12-28T04:12:22.339Z,93.94
2016-12-28T04:13:22.331Z,94.6
2016-12-28T04:14:22.331Z,94.6
2016-12-28T04:15:22.314Z,94.88
2016-12-28T04:16:21.987Z,94.6
2016-12-28T04:17:22.311Z,94.79
2016-12-28T04:18:21.975Z,94.6
2016-12-28T04:19:22.303Z,94.79
2016-12-28T04:20:22.291Z,94.22
2016-12-28T04:21:22.283Z,94.41
2016-12-28T04:22:22.287Z,94.6
2016-12-28T04:23:21.979Z,94.41
2016-12-28T04:24:22.274Z,94.22
2016-12-28T04:25:21.939Z,94.22
2016-12-28T04:26:22.255Z,94.22
2016-12-28T04:27:21.923Z,94.41
2016-12-28T04:28:22.247Z,94.41
2016-12-28T04:29:22.239Z,94.22
2016-12-28T04:30:21.919Z,94.6
2016-12-28T04:31:22.231Z,94.22
2016-12-28T04:32:21.895Z,94.32
2016-12-28T04:33:22.219Z,93.84
2016-12-28T04:34:22.211Z,94.32
2016-12-28T04:35:22.203Z,94.22
2016-12-28T04:36:22.199Z,94.13
2016-12-28T04:37:21.871Z,94.03
2016-12-28T04:38:21.867Z,94.32
2016-12-28T04:39:21.855Z,93.65
2016-12-28T04:40:22.171Z,93.65
2016-12-28T04:41:22.175Z,93.94
2016-12-28T04:42:22.164Z,93.94
2016-12-28T04:43:22.164Z,93.84
2016-12-28T04:44:22.155Z,93.75
2016-12-28T04:45:21.831Z,93.94
2016-12-28T04:46:21.819Z,93.84
2016-12-28T04:47:21.819Z,93.84
2016-12-28T04:48:22.135Z,93.56
2016-12-28T04:49:22.128Z,93.28
2016-12-28T04:50:22.123Z,93.65
2016-12-28T04:51:22.116Z,93.28
2016-12-28T04:52:22.112Z,93.47
2016-12-28T04:53:21.776Z,93.47
2016-12-28T04:54:22.104Z,93.47
2016-12-28T04:55:22.100Z,93.47
2016-12-28T04:56:22.080Z,93.37
2016-12-28T04:57:22.084Z,93.18
2016-12-28T04:58:22.080Z,93.28
2016-12-28T04:59:22.076Z,93.18
2016-12-28T05:00:21.732Z,93.56
2016-12-28T05:01:22.064Z,93.47
2016-12-28T05:02:21.729Z,93.37
2016-12-28T05:03:22.048Z,93.28
2016-12-28T05:04:22.048Z,93.47
2016-12-28T05:05:22.064Z,93.75
2016-12-28T05:06:22.028Z,93.56
2016-12-28T05:07:22.028Z,93.65
2016-12-28T05:08:22.024Z,93.18
2016-12-28T05:09:21.684Z,93.75
2016-12-28T05:10:22.012Z,93.75
2016-12-28T05:11:22.000Z,93.84
2016-12-28T05:12:22.001Z,93.56
2016-12-28T05:13:21.673Z,93.47
2016-12-28T05:14:21.985Z,93.65
2016-12-28T05:15:21.985Z,93.75
2016-12-28T05:16:21.970Z,93.56
2016-12-28T05:17:21.974Z,93.65
2016-12-28T05:18:21.638Z,93.65
2016-12-28T05:19:21.958Z,93.65
2016-12-28T05:20:21.627Z,94.03
2016-12-28T05:21:21.943Z,94.41
2016-12-28T05:22:21.611Z,94.22
2016-12-28T05:23:21.947Z,94.69
2016-12-28T05:24:21.600Z,94.32
2016-12-28T05:25:21.928Z,94.22
2016-12-28T05:26:21.920Z,94.41
2016-12-28T05:27:21.920Z,94.13
2016-12-28T05:28:21.913Z,94.6
2016-12-28T05:29:21.905Z,94.69
2016-12-28T05:30:21.902Z,94.41
2016-12-28T05:31:21.895Z,94.79
2016-12-28T05:32:21.890Z,94.6
2016-12-28T05:33:21.914Z,94.69
2016-12-28T05:34:21.878Z,94.51
2016-12-28T05:35:21.542Z,94.51
2016-12-28T05:36:21.859Z,94.98
2016-12-28T05:37:21.531Z,94.6
2016-12-28T05:38:21.855Z,94.88
2016-12-28T05:39:21.855Z,94.88
2016-12-28T05:40:21.840Z,94.41
2016-12-28T05:41:21.835Z,94.79
2016-12-28T05:42:21.507Z,94.69
2016-12-28T05:43:21.828Z,94.22
2016-12-28T05:44:21.828Z,94.51
2016-12-28T05:45:21.821Z,94.41
2016-12-28T05:46:21.813Z,94.41
2016-12-28T05:47:21.801Z,94.41
2016-12-28T05:48:21.470Z,94.13
2016-12-28T05:49:21.802Z,94.41
2016-12-28T05:50:21.466Z,94.6
2016-12-28T05:51:21.790Z,94.88
2016-12-28T05:52:21.451Z,94.41
2016-12-28T05:53:21.775Z,93.84
2016-12-28T05:54:21.439Z,94.32
2016-12-28T05:55:21.767Z,94.51
2016-12-28T05:56:21.756Z,94.88
2016-12-28T05:57:21.756Z,94.79
2016-12-28T05:58:21.414Z,94.6
2016-12-28T05:59:21.737Z,94.51
2016-12-28T06:00:21.741Z,94.6
2016-12-28T06:01:21.726Z,94.03
2016-12-28T06:02:21.732Z,94.6
2016-12-28T06:03:21.718Z,94.6
2016-12-28T06:04:21.714Z,94.69
2016-12-28T06:05:21.707Z,94.22
2016-12-28T06:06:21.707Z,94.41
2016-12-28T06:07:21.700Z,94.13
2016-12-28T06:08:21.688Z,94.13
2016-12-28T06:09:21.695Z,94.13
2016-12-28T06:10:21.676Z,94.41
2016-12-28T06:11:21.353Z,94.6
2016-12-28T06:12:21.672Z,93.94
2016-12-28T06:13:21.661Z,94.22
2016-12-28T06:14:21.653Z,93.94
2016-12-28T06:15:21.653Z,94.32
2016-12-28T06:16:21.673Z,94.32
2016-12-28T06:17:21.646Z,94.41
2016-12-28T06:18:21.634Z,94.51
2016-12-28T06:19:21.634Z,94.51
2016-12-28T06:20:21.630Z,94.32
2016-12-28T06:21:21.615Z,94.13
2016-12-28T06:22:21.611Z,94.22
2016-12-28T06:23:21.612Z,93.65
2016-12-28T06:24:21.603Z,94.03
2016-12-28T06:25:21.276Z,94.22
2016-12-28T06:26:21.596Z,93.75
2016-12-28T06:27:21.289Z,93.75
2016-12-28T06:28:21.581Z,93.84
2016-12-28T06:29:21.581Z,93.75
2016-12-28T06:30:21.568Z,94.22
2016-12-28T06:31:21.572Z,94.22
2016-12-28T06:32:21.557Z,94.03
2016-12-28T06:33:21.228Z,94.22
2016-12-28T06:34:21.553Z,94.32
2016-12-28T06:35:21.213Z,94.41
2016-12-28T06:36:21.537Z,94.41
2016-12-28T06:37:21.201Z,94.22
2016-12-28T06:38:21.526Z,94.22
2016-12-28T06:39:21.190Z,94.79
2016-12-28T06:40:21.514Z,94.51
2016-12-28T06:41:21.510Z,94.41
2016-12-28T06:42:21.506Z,94.41
2016-12-28T06:43:21.174Z,94.69
2016-12-28T06:44:21.490Z,94.03
2016-12-28T06:45:21.485Z,94.41
2016-12-28T06:46:21.486Z,94.41
2016-12-28T06:47:21.473Z,94.41
2016-12-28T06:48:21.474Z,94.32
2016-12-28T06:49:21.466Z,94.41
2016-12-28T06:50:21.470Z,94.03
2016-12-28T06:51:21.449Z,94.22
2016-12-28T06:52:21.446Z,94.6
2016-12-28T06:53:21.441Z,94.6
2016-12-28T06:54:21.438Z,94.22
2016-12-28T06:55:21.433Z,94.03
2016-12-28T06:56:21.428Z,94.13
2016-12-28T06:57:21.410Z,94.51
2016-12-28T06:58:21.406Z,94.22
2016-12-28T06:59:21.406Z,94.03
2016-12-28T07:00:21.398Z,94.13
2016-12-28T07:01:21.398Z,94.22
2016-12-28T07:02:21.385Z,93.65
2016-12-28T07:03:21.378Z,94.6
2016-12-28T07:04:21.365Z,94.79
2016-12-28T07:05:21.366Z,94.41
2016-12-28T07:06:21.038Z,93.84
2016-12-28T07:07:21.354Z,94.22
2016-12-28T07:08:21.022Z,94.41
2016-12-28T07:09:21.359Z,94.51
2016-12-28T07:10:21.017Z,94.22
2016-12-28T07:11:21.330Z,94.32
2016-12-28T07:12:21.006Z,94.32
2016-12-28T07:13:21.330Z,94.88
2016-12-28T07:14:20.990Z,94.79
2016-12-28T07:15:21.314Z,94.6
2016-12-28T07:16:21.306Z,94.32
2016-12-28T07:17:21.305Z,94.41
2016-12-28T07:18:20.970Z,94.22
2016-12-28T07:19:21.290Z,94.41
2016-12-28T07:20:20.962Z,94.32
2016-12-28T07:21:21.290Z,94.51
2016-12-28T07:22:21.272Z,94.22
2016-12-28T07:23:21.267Z,94.41
2016-12-28T07:24:21.265Z,94.22
2016-12-28T07:25:21.250Z,94.03
2016-12-28T07:26:21.246Z,94.13
2016-12-28T07:27:21.238Z,94.32
2016-12-28T07:28:21.242Z,94.22
2016-12-28T07:29:21.238Z,94.13
2016-12-28T07:30:21.226Z,94.6
2016-12-28T07:31:20.894Z,94.32
2016-12-28T07:32:21.222Z,94.22
2016-12-28T07:33:21.410Z,94.41
2016-12-28T07:34:21.210Z,94.03
2016-12-28T07:35:21.194Z,94.32
2016-12-28T07:36:21.194Z,94.51
2016-12-28T07:37:20.862Z,94.41
2016-12-28T07:38:21.186Z,94.6
2016-12-28T07:39:21.173Z,94.6
2016-12-28T07:40:20.846Z,94.41
2016-12-28T07:41:21.162Z,94.98
2016-12-28T07:42:21.162Z,94.69
2016-12-28T07:43:21.154Z,94.69
2016-12-28T07:44:21.150Z,94.79
2016-12-28T07:45:20.818Z,94.69
2016-12-28T07:46:21.142Z,94.6
2016-12-28T07:47:21.126Z,94.51
2016-12-28T07:48:21.129Z,94.6
2016-12-28T07:49:21.130Z,94.93
2016-12-28T07:50:21.110Z,95.12
2016-12-28T07:51:21.110Z,94.65
2016-12-28T07:52:21.098Z,95.21
2016-12-28T07:53:20.769Z,94.65
2016-12-28T07:54:21.085Z,95.03
2016-12-28T07:55:21.089Z,94.93
2016-12-28T07:56:20.757Z,95.31
2016-12-28T07:57:21.065Z,94.93
2016-12-28T07:58:21.075Z,94.84
2016-12-28T07:59:20.733Z,94.84
2016-12-28T08:00:20.732Z,95.4
2016-12-28T08:01:21.053Z,95.12
2016-12-28T08:02:21.044Z,95.21
2016-12-28T08:03:21.043Z,95.21
2016-12-28T08:04:21.040Z,95.59
2016-12-28T08:05:21.036Z,95.31
2016-12-28T08:06:21.024Z,95.31
2016-12-28T08:07:20.687Z,95.59
2016-12-28T08:08:21.019Z,95.54
2016-12-28T08:09:21.007Z,95.17
2016-12-28T08:10:20.999Z,95.45
2016-12-28T08:11:20.995Z,95.26
2016-12-28T08:12:20.663Z,95.36
2016-12-28T08:13:20.655Z,95.36
2016-12-28T08:14:20.979Z,95.26
2016-12-28T08:15:20.975Z,95.92
2016-12-28T08:16:20.971Z,95.26
2016-12-28T08:17:20.959Z,95.36
2016-12-28T08:18:20.626Z,95.26
2016-12-28T08:19:20.626Z,95.64
2016-12-28T08:20:20.942Z,95.26
2016-12-28T08:21:20.934Z,95.17
2016-12-28T08:22:20.938Z,95.26
2016-12-28T08:23:20.602Z,95.17
2016-12-28T08:24:20.921Z,95.26
2016-12-28T08:25:20.921Z,95.45
2016-12-28T08:26:20.909Z,95.45
2016-12-28T08:27:20.911Z,95.73
2016-12-28T08:28:20.905Z,95.73
2016-12-28T08:29:20.565Z,95.73
2016-12-28T08:30:20.564Z,95.64
2016-12-28T08:31:20.560Z,96.3
2016-12-28T08:32:20.879Z,95.73
2016-12-28T08:33:20.548Z,95.54
2016-12-28T08:34:20.543Z,95.64
2016-12-28T08:35:20.535Z,95.73
2016-12-28T08:36:20.531Z,95.83
2016-12-28T08:37:20.855Z,95.87
2016-12-28T08:38:20.851Z,95.4
2016-12-28T08:39:20.839Z,95.97
2016-12-28T08:40:20.830Z,95.97
2016-12-28T08:41:20.830Z,95.87
2016-12-28T08:42:20.825Z,95.97
2016-12-28T08:43:20.821Z,96.16
2016-12-28T08:44:20.485Z,96.16
2016-12-28T08:45:20.485Z,96.16
2016-12-28T08:46:20.797Z,95.78
2016-12-28T08:47:20.465Z,95.78
2016-12-28T08:48:20.793Z,96.06
2016-12-28T08:49:20.792Z,96.16
2016-12-28T08:50:20.780Z,95.59
2016-12-28T08:51:20.780Z,95.97
2016-12-28T08:52:20.444Z,95.68
2016-12-28T08:53:20.760Z,95.68
2016-12-28T08:54:20.760Z,95.97
2016-12-28T08:55:20.759Z,95.4
2016-12-28T08:56:20.423Z,95.4
2016-12-28T08:57:20.419Z,95.59
2016-12-28T08:58:20.743Z,96.02
2016-12-28T08:59:20.730Z,95.92
2016-12-28T09:00:20.409Z,95.73
2016-12-28T09:01:20.726Z,96.02
2016-12-28T09:02:20.721Z,96.02
2016-12-28T09:03:20.722Z,95.73
2016-12-28T09:04:20.713Z,95.36
2016-12-28T09:05:20.709Z,96.02
2016-12-28T09:06:20.701Z,95.73
2016-12-28T09:07:20.696Z,95.83
2016-12-28T09:08:20.694Z,95.92
2016-12-28T09:09:20.360Z,96.4
2016-12-28T09:10:20.675Z,95.92
2016-12-28T09:11:20.667Z,95.92
2016-12-28T09:12:20.667Z,95.92
2016-12-28T09:13:20.671Z,96.3
2016-12-28T09:14:20.331Z,96.4
2016-12-28T09:15:20.651Z,96.26
2016-12-28T09:16:20.647Z,95.97
2016-12-28T09:17:20.642Z,95.88
2016-12-28T09:18:20.638Z,95.88
2016-12-28T09:19:20.632Z,95.78
2016-12-28T09:20:20.306Z,95.88
2016-12-28T09:21:20.294Z,95.59
2016-12-28T09:22:20.290Z,95.97
2016-12-28T09:23:20.614Z,95.88
2016-12-28T09:24:20.609Z,95.31
2016-12-28T09:25:20.273Z,95.97
2016-12-28T09:26:20.601Z,95.31
2016-12-28T09:27:20.617Z,95.69
2016-12-28T09:28:20.581Z,95.59
2016-12-28T09:29:20.585Z,95.59
2016-12-28T09:30:20.576Z,95.59
2016-12-28T09:31:20.577Z,95.12
2016-12-28T09:32:20.245Z,95.03
2016-12-28T09:33:20.240Z,95.5
2016-12-28T09:34:20.560Z,95.5
2016-12-28T09:35:20.552Z,95.21
2016-12-28T09:36:20.228Z,95.97
2016-12-28T09:37:20.220Z,95.21
2016-12-28T09:38:20.540Z,95.21
2016-12-28T09:39:20.535Z,95.5
2016-12-28T09:40:20.207Z,95.78
2016-12-28T09:41:20.531Z,94.93
2016-12-28T09:42:20.515Z,95.78
2016-12-28T09:43:20.519Z,95.59
2016-12-28T09:44:20.511Z,94.84
2016-12-28T09:45:20.507Z,95.5
2016-12-28T09:46:20.179Z,94.84
2016-12-28T09:47:20.502Z,94.65
2016-12-28T09:48:20.495Z,94.84
2016-12-28T09:49:20.490Z,94.74
2016-12-28T09:50:20.482Z,95.69
2016-12-28T09:51:20.482Z,95.69
2016-12-28T09:52:20.470Z,94.65
2016-12-28T09:53:20.150Z,95.4
2016-12-28T09:54:20.462Z,95.69
2016-12-28T09:55:20.454Z,95.88
2016-12-28T09:56:20.126Z,95.78
2016-12-28T09:57:20.474Z,94.74
2016-12-28T09:58:20.122Z,94.98
2016-12-28T09:59:20.438Z,96.02
2016-12-28T10:00:20.443Z,94.6
2016-12-28T10:01:20.106Z,95.74
2016-12-28T10:02:20.434Z,95.17
2016-12-28T10:03:20.423Z,95.74
2016-12-28T10:04:20.419Z,95.55
2016-12-28T10:05:20.087Z,95.17
2016-12-28T10:06:20.087Z,95.07
2016-12-28T10:07:20.403Z,95.07
2016-12-28T10:08:20.399Z,95.26
2016-12-28T10:09:20.403Z,95.17
2016-12-28T10:10:20.395Z,95.55
2016-12-28T10:11:20.391Z,95.45
2016-12-28T10:12:20.059Z,95.64
2016-12-28T10:13:20.055Z,95.17
2016-12-28T10:14:20.376Z,94.98
2016-12-28T10:15:20.043Z,94.6
2016-12-28T10:16:20.368Z,94.98
2016-12-28T10:17:20.372Z,94.6
2016-12-28T10:18:20.364Z,94.7
2016-12-28T10:19:20.035Z,94.51
2016-12-28T10:20:20.020Z,94.79
2016-12-28T10:21:20.016Z,94.6
2016-12-28T10:22:20.340Z,94.79
2016-12-28T10:23:20.017Z,94.79
2016-12-28T10:24:20.369Z,94.7
2016-12-28T10:25:20.336Z,94.79
2016-12-28T10:26:20.324Z,94.79
2016-12-28T10:27:20.320Z,94.7
2016-12-28T10:28:20.320Z,94.51
2016-12-28T10:29:19.989Z,94.79
2016-12-28T10:30:19.981Z,94.89
2016-12-28T10:31:19.977Z,94.79
2016-12-28T10:32:19.972Z,94.42
2016-12-28T10:33:19.973Z,93.94
2016-12-28T10:34:20.293Z,94.51
2016-12-28T10:35:20.281Z,94.42
2016-12-28T10:36:20.288Z,94.98
2016-12-28T10:37:20.285Z,94.42
2016-12-28T10:38:20.277Z,95.55
2016-12-28T10:39:20.273Z,94.79
2016-12-28T10:40:20.282Z,94.42
2016-12-28T10:41:19.933Z,94.7
2016-12-28T10:42:20.253Z,95.64
2016-12-28T10:43:20.253Z,94.7
2016-12-28T10:44:20.253Z,94.89
2016-12-28T10:45:20.246Z,94.65
2016-12-28T10:46:20.245Z,94.65
2016-12-28T10:47:20.235Z,95.31
2016-12-28T10:48:20.238Z,95.5
2016-12-28T10:49:20.230Z,95.97
2016-12-28T10:50:20.226Z,95.21
2016-12-28T10:51:20.226Z,95.59
2016-12-28T10:52:20.215Z,95.88
2016-12-28T10:53:20.219Z,95.03
2016-12-28T10:54:20.206Z,95.03
2016-12-28T10:55:20.207Z,94.84
2016-12-28T10:56:20.199Z,95.69
2016-12-28T10:57:20.195Z,94.84
2016-12-28T10:58:19.863Z,95.59
2016-12-28T10:59:20.191Z,95.78
2016-12-28T11:00:20.183Z,94.93
2016-12-28T11:01:20.185Z,95.69
2016-12-28T11:02:20.176Z,95.88
2016-12-28T11:03:20.172Z,95.69
2016-12-28T11:04:20.171Z,95.83
2016-12-28T11:05:20.164Z,95.17
2016-12-28T11:06:20.160Z,94.79
2016-12-28T11:07:20.356Z,94.51
2016-12-28T11:08:20.149Z,94.42
2016-12-28T11:09:20.156Z,94.7
2016-12-28T11:10:20.144Z,93.84
2016-12-28T11:11:19.817Z,93.75
2016-12-28T11:12:20.136Z,93.65
2016-12-28T11:13:20.137Z,94.13
2016-12-28T11:14:20.129Z,93.94
2016-12-28T11:15:19.801Z,93.65
2016-12-28T11:16:20.121Z,93.84
2016-12-28T11:17:20.125Z,93.37
2016-12-28T11:18:20.109Z,93.27
2016-12-28T11:19:19.785Z,92.52
2016-12-28T11:20:19.786Z,92.52
2016-12-28T11:21:20.102Z,92.52
2016-12-28T11:22:20.098Z,92.43
2016-12-28T11:23:19.771Z,92.05
2016-12-28T11:24:20.087Z,92.05
2016-12-28T11:25:20.096Z,91.57
2016-12-28T11:26:20.084Z,91.67
2016-12-28T11:27:20.084Z,91.14
2016-12-28T11:28:20.077Z,91.43
2016-12-28T11:29:19.749Z,90.58
2016-12-28T11:30:19.742Z,90.95
2016-12-28T11:31:20.072Z,90.2
2016-12-28T11:32:20.067Z,90.2
2016-12-28T11:33:19.735Z,90.29
2016-12-28T11:34:20.059Z,89.53
2016-12-28T11:35:20.052Z,89.25
2016-12-28T11:36:20.048Z,88.49
2016-12-28T11:37:20.052Z,88.21
2016-12-28T11:38:19.713Z,87.83
2016-12-28T11:39:20.042Z,87.07
2016-12-28T11:40:20.038Z,87.45
2016-12-28T11:41:20.034Z,87.07
2016-12-28T11:42:20.026Z,87.07
2016-12-28T11:43:20.019Z,86.88
2016-12-28T11:44:20.020Z,86.79
2016-12-28T11:45:20.015Z,87.07
2016-12-28T11:46:19.684Z,87.54
2016-12-28T11:47:20.009Z,87.07
2016-12-28T11:48:19.680Z,86.88
2016-12-28T11:49:20.001Z,86.79
2016-12-28T11:50:19.669Z,86.03
2016-12-28T11:51:19.990Z,86.22
2016-12-28T11:52:19.990Z,86.22
2016-12-28T11:53:19.658Z,86.22
2016-12-28T11:54:20.075Z,86.69
2016-12-28T11:55:19.655Z,86.88
2016-12-28T11:56:20.059Z,86.79
2016-12-28T11:57:20.064Z,86.12
2016-12-28T11:58:20.060Z,85.74
2016-12-28T11:59:20.076Z,85.74
2016-12-28T12:00:20.052Z,84.99
2016-12-28T12:01:20.049Z,84.61
2016-12-28T12:02:19.645Z,84.32
2016-12-28T12:03:20.043Z,83.18
2016-12-28T12:04:20.037Z,82.43
2016-12-28T12:05:20.036Z,82.71
2016-12-28T12:06:20.026Z,82.24
2016-12-28T12:07:20.018Z,81.76
2016-12-28T12:08:20.019Z,81.38
2016-12-28T12:09:20.014Z,81.2
2016-12-28T12:10:20.011Z,81.29
2016-12-28T12:11:20.013Z,81.01
2016-12-28T12:12:19.595Z,81.01
2016-12-28T12:13:20.004Z,80.25
2016-12-28T12:14:20.004Z,80.15
2016-12-28T12:15:19.580Z,80.34
2016-12-28T12:16:19.996Z,80.63
2016-12-28T12:17:19.985Z,79.3
2016-12-28T12:18:19.989Z,79.68
2016-12-28T12:19:20.005Z,79.68
2016-12-28T12:20:19.973Z,79.72
2016-12-28T12:21:20.010Z,79.72
2016-12-28T12:22:19.561Z,79.91
2016-12-28T12:23:19.554Z,79.72
2016-12-28T12:24:19.966Z,78.96
2016-12-28T12:25:19.546Z,78.58
2016-12-28T12:26:19.955Z,78.67
2016-12-28T12:27:19.947Z,78.3
2016-12-28T12:28:19.955Z,78.77
2016-12-28T12:29:19.939Z,78.77
2016-12-28T12:30:19.944Z,78.77
2016-12-28T12:31:19.944Z,78.02
2016-12-28T12:32:19.936Z,77.73
2016-12-28T12:33:19.937Z,78.2
2016-12-28T12:34:19.928Z,77.92
2016-12-28T12:35:19.925Z,78.11
2016-12-28T12:36:19.925Z,78.02
2016-12-28T12:37:19.921Z,77.64
2016-12-28T12:38:19.506Z,78.3
2016-12-28T12:39:19.503Z,78.11
2016-12-28T12:40:19.494Z,78.3
2016-12-28T12:41:19.907Z,78.11
2016-12-28T12:42:19.486Z,78.02
2016-12-28T12:43:19.895Z,78.02
2016-12-28T12:44:19.887Z,78.2
2016-12-28T12:45:19.479Z,76.97
2016-12-28T12:46:19.891Z,76.5
2016-12-28T12:47:19.476Z,76.12
2016-12-28T12:48:19.884Z,75.45
2016-12-28T12:49:19.464Z,75.74
2016-12-28T12:50:19.876Z,75.64
2016-12-28T12:51:19.889Z,75.55
2016-12-28T12:52:19.869Z,74.98
2016-12-28T12:53:19.856Z,75.36
2016-12-28T12:54:19.861Z,74.98
2016-12-28T12:55:19.854Z,74.69